Afonsos, Brazil

12:57 PM BRT on August 01, 2014 (GMT -0300)
Taquara (IRIODEJA17) Elev 115 ft | 22.92 °S, 43.38 °W | Change Station

Current weather conditions updated 3 seconds ago

Clear
Clear
80.6 °F
Feels Like 82 °F
N
3.8
Wind Variable Wind from SW
Gusts 3.8 mph

Today is forecast to be Warmer than yesterday.

Today
High -- | Low -- °F
--% Chance of Precip.
Yesterday
High -- | Low -- °F
Precip. -- in
6:27 AM 5:32 PM
Waxing Crescent, 27% visible
Pressure 30.12 in
Visibility -9999.0 miles
Clouds
Heat Index 82 °F
Dew Point 64 °F
Humidity 57%
Rainfall 0.00 in
Snow Depth Not available.
UV Not available.
Pollen Not available.
Air Quality Not available.
Flu Activity Not available.
METAR SBAF 011400Z 05003KT CAVOK 26/15 Q1020

More Conditions Fewer Conditions

Pressure 30.12 in
Visibility -9999.0 miles
Clouds
Heat Index 82 °F
Dew Point 64 °F
Humidity 57%
Rainfall 0.00 in
Snow Depth Not available.
UV Not available.
Pollen Not available.
Air Quality Not available.
Flu Activity Not available.
METAR SBAF 011400Z 05003KT CAVOK 26/15 Q1020

More Conditions Fewer Conditions

10-Day Weather Forecast

Almanac

Astronomy

Aug. 01, 2014 Rise Set
Actual Time 6:27 AM BRT 5:32 PM BRT
Civil Twilight 6:03 AM BRT 5:55 PM BRT
Nautical Twilight 5:36 AM BRT 6:23 PM BRT
Astronomical Twilight 5:10 AM BRT 6:49 PM BRT
Moon 9:41 AM BRT 10:24 PM BRT
Length of Visible Light 11h 52m
Length of Day
11h 04m
Tomorrow will be 0m 56s longer.
Waxing Crescent, 27% of the Moon is Illuminated
Today
Waxing Crescent
Aug 3
First Quarter
Aug 10
Full
Aug 17
Last Quarter
Aug 25
New

Today's Extremes

Country Highs Country Lows

Community

WunderPhotos

Upload Photos

1,739,618 photos uploaded!

Nearby

Snow Depth

Not available.

Earthquake Activity

City Distance Mag. Time & Date
No recent earthquake activity has been reported nearby.
Minimum magnitude displayed is 2.5.

Coastal Water Temperatures

Place Temperature
No Stations Reporting

Nearby Weather Stations

Station Location Temp. Heat Index Dew Point Humidity Wind Precip. Elev Updated Type
Taquara, Rio De Janeiro 80.6 °F 82 °F 64 °F 57% SW  at  3.8 mph 0.00 in / hr 115 ft 12:57 PM BRT Rapid Fire
Todos os Santos, Rio de Janeiro 86.5 °F 89 °F 67 °F 52% ESE  at  0.9 mph 0.00 in / hr 98 ft 12:56 PM BRT Rapid Fire
Cachambi / Meier, Rio De Janeiro 77.5 °F 79 °F 62 °F 58% East  at  0.9 mph 0.00 in / hr 79 ft 12:53 PM BRT Normal
CSCVL pouso Pepino, Rio De Janeiro 72.7 °F 70 °F -7 °F - SE  at  6.0 mph 0.00 in / hr 59 ft 12:56 PM BRT Rapid Fire
Vila Progesso, Pendotiba - Niteroi, RJ -, Niteroi 82.6 °F 84 °F 63 °F 51% NE  at  3.2 mph - / hr 300 ft 12:44 PM BRT Normal
Niteroi, Niteroi 78.1 °F 80 °F 66 °F 66% SW  at  5.0 mph 0.00 in / hr 23 ft 12:55 PM BRT Normal
CSCVL rampa Pedra Bonita, Rio De Janeiro 70.2 °F 71 °F 64 °F 80% SSE  at  0.0 mph 0.00 in / hr 1709 ft 12:56 PM BRT Rapid Fire

Show More Stations Show Fewer Stations